sensor_id;sensor_type;location;lat;lon;timestamp;temperature;humidity
5023;DHT22;2530;47.990;7.866;2023-02-17T00:00:27;13.00;24.90
5023;DHT22;2530;47.990;7.866;2023-02-17T00:05:22;12.80;23.50
5023;DHT22;2530;47.990;7.866;2023-02-17T00:07:48;12.50;19.90
5023;DHT22;2530;47.990;7.866;2023-02-17T00:10:14;13.20;21.10
5023;DHT22;2530;47.990;7.866;2023-02-17T00:12:40;13.10;21.30
5023;DHT22;2530;47.990;7.866;2023-02-17T00:15:06;12.60;28.40
5023;DHT22;2530;47.990;7.866;2023-02-17T00:17:32;12.50;23.00
5023;DHT22;2530;47.990;7.866;2023-02-17T00:22:23;12.40;26.80
5023;DHT22;2530;47.990;7.866;2023-02-17T00:24:49;12.70;26.90
5023;DHT22;2530;47.990;7.866;2023-02-17T00:27:15;12.40;24.90
5023;DHT22;2530;47.990;7.866;2023-02-17T00:29:41;12.70;32.70
5023;DHT22;2530;47.990;7.866;2023-02-17T00:32:06;12.90;32.80
5023;DHT22;2530;47.990;7.866;2023-02-17T00:34:34;12.80;27.70
5023;DHT22;2530;47.990;7.866;2023-02-17T00:37:00;12.70;33.80
5023;DHT22;2530;47.990;7.866;2023-02-17T00:41:51;12.80;32.70
5023;DHT22;2530;47.990;7.866;2023-02-17T00:44:19;12.50;34.00
5023;DHT22;2530;47.990;7.866;2023-02-17T00:46:45;12.90;34.40
5023;DHT22;2530;47.990;7.866;2023-02-17T00:49:23;13.10;33.80
5023;DHT22;2530;47.990;7.866;2023-02-17T00:51:50;12.70;36.90
5023;DHT22;2530;47.990;7.866;2023-02-17T00:54:16;12.60;35.50
5023;DHT22;2530;47.990;7.866;2023-02-17T00:56:42;13.00;38.00
5023;DHT22;2530;47.990;7.866;2023-02-17T00:59:09;12.70;47.10
5023;DHT22;2530;47.990;7.866;2023-02-17T01:01:35;12.60;45.60
5023;DHT22;2530;47.990;7.866;2023-02-17T01:04:01;13.20;50.90
5023;DHT22;2530;47.990;7.866;2023-02-17T01:06:32;12.70;44.60
5023;DHT22;2530;47.990;7.866;2023-02-17T01:08:58;12.70;46.40
5023;DHT22;2530;47.990;7.866;2023-02-17T01:11:29;12.70;57.50
5023;DHT22;2530;47.990;7.866;2023-02-17T01:13:55;12.50;59.40
5023;DHT22;2530;47.990;7.866;2023-02-17T01:16:27;12.60;58.40
5023;DHT22;2530;47.990;7.866;2023-02-17T01:18:53;12.80;52.30
5023;DHT22;2530;47.990;7.866;2023-02-17T01:21:24;12.50;51.80
5023;DHT22;2530;47.990;7.866;2023-02-17T01:23:51;12.70;48.30
5023;DHT22;2530;47.990;7.866;2023-02-17T01:26:20;12.70;58.80
5023;DHT22;2530;47.990;7.866;2023-02-17T01:28:47;12.90;61.00
5023;DHT22;2530;47.990;7.866;2023-02-17T01:31:13;12.60;52.50
5023;DHT22;2530;47.990;7.866;2023-02-17T01:36:07;12.90;47.90
5023;DHT22;2530;47.990;7.866;2023-02-17T01:38:34;12.70;51.30
5023;DHT22;2530;47.990;7.866;2023-02-17T01:41:00;12.60;52.40
5023;DHT22;2530;47.990;7.866;2023-02-17T01:43:26;12.60;52.70
5023;DHT22;2530;47.990;7.866;2023-02-17T01:45:56;11.60;52.20
5023;DHT22;2530;47.990;7.866;2023-02-17T01:48:35;12.90;55.30
5023;DHT22;2530;47.990;7.866;2023-02-17T01:51:12;12.80;63.10
5023;DHT22;2530;47.990;7.866;2023-02-17T01:56:13;12.80;57.20
5023;DHT22;2530;47.990;7.866;2023-02-17T01:58:43;12.90;60.80
5023;DHT22;2530;47.990;7.866;2023-02-17T02:03:36;12.50;55.70
5023;DHT22;2530;47.990;7.866;2023-02-17T02:06:06;12.90;57.70
5023;DHT22;2530;47.990;7.866;2023-02-17T02:08:40;12.60;57.00
5023;DHT22;2530;47.990;7.866;2023-02-17T02:11:09;12.70;56.20
5023;DHT22;2530;47.990;7.866;2023-02-17T02:13:34;12.90;56.80
5023;DHT22;2530;47.990;7.866;2023-02-17T02:18:57;12.70;55.20
5023;DHT22;2530;47.990;7.866;2023-02-17T02:23:55;12.60;51.00
5023;DHT22;2530;47.990;7.866;2023-02-17T02:35:07;12.60;53.50
5023;DHT22;2530;47.990;7.866;2023-02-17T02:37:38;12.60;61.10
5023;DHT22;2530;47.990;7.866;2023-02-17T02:40:07;12.50;59.30
5023;DHT22;2530;47.990;7.866;2023-02-17T02:42:34;12.80;55.90
5023;DHT22;2530;47.990;7.866;2023-02-17T02:44:59;12.00;56.40
5023;DHT22;2530;47.990;7.866;2023-02-17T02:47:54;12.60;57.20
5023;DHT22;2530;47.990;7.866;2023-02-17T03:04:35;12.30;59.90
5023;DHT22;2530;47.990;7.866;2023-02-17T03:09:32;12.40;63.60
5023;DHT22;2530;47.990;7.866;2023-02-17T03:11:58;10.60;56.60
5023;DHT22;2530;47.990;7.866;2023-02-17T03:14:24;12.10;55.10
5023;DHT22;2530;47.990;7.866;2023-02-17T03:16:51;12.50;57.20
5023;DHT22;2530;47.990;7.866;2023-02-17T03:19:19;12.60;57.90
5023;DHT22;2530;47.990;7.866;2023-02-17T03:21:58;12.50;61.50
5023;DHT22;2530;47.990;7.866;2023-02-17T03:24:25;12.60;62.90
5023;DHT22;2530;47.990;7.866;2023-02-17T03:26:51;12.30;65.30
5023;DHT22;2530;47.990;7.866;2023-02-17T03:29:17;12.30;64.90
5023;DHT22;2530;47.990;7.866;2023-02-17T03:34:08;12.20;66.40
5023;DHT22;2530;47.990;7.866;2023-02-17T03:36:34;14.70;68.80
5023;DHT22;2530;47.990;7.866;2023-02-17T03:38:59;12.20;76.40
5023;DHT22;2530;47.990;7.866;2023-02-17T03:41:25;12.00;77.20
5023;DHT22;2530;47.990;7.866;2023-02-17T03:43:51;13.00;66.10
5023;DHT22;2530;47.990;7.866;2023-02-17T03:46:17;12.10;64.30
5023;DHT22;2530;47.990;7.866;2023-02-17T03:48:43;12.00;61.20
5023;DHT22;2530;47.990;7.866;2023-02-17T03:51:20;12.40;57.90
5023;DHT22;2530;47.990;7.866;2023-02-17T03:53:47;12.20;68.60
5023;DHT22;2530;47.990;7.866;2023-02-17T03:56:13;12.10;59.80
5023;DHT22;2530;47.990;7.866;2023-02-17T03:58:39;12.00;56.40
5023;DHT22;2530;47.990;7.866;2023-02-17T04:01:07;12.10;61.70
5023;DHT22;2530;47.990;7.866;2023-02-17T04:03:33;12.00;59.40
5023;DHT22;2530;47.990;7.866;2023-02-17T04:05:59;12.70;66.70
5023;DHT22;2530;47.990;7.866;2023-02-17T04:08:25;12.50;64.50
5023;DHT22;2530;47.990;7.866;2023-02-17T04:10:52;12.20;56.00
5023;DHT22;2530;47.990;7.866;2023-02-17T04:13:18;12.50;54.70
5023;DHT22;2530;47.990;7.866;2023-02-17T04:15:44;12.00;53.30
5023;DHT22;2530;47.990;7.866;2023-02-17T04:18:09;12.40;51.30
5023;DHT22;2530;47.990;7.866;2023-02-17T04:20:35;12.00;51.80
5023;DHT22;2530;47.990;7.866;2023-02-17T04:23:00;12.30;57.70
5023;DHT22;2530;47.990;7.866;2023-02-17T04:27:51;12.60;53.80
5023;DHT22;2530;47.990;7.866;2023-02-17T04:30:17;12.60;62.60
5023;DHT22;2530;47.990;7.866;2023-02-17T04:35:08;12.30;55.40
5023;DHT22;2530;47.990;7.866;2023-02-17T04:37:34;12.00;62.60
5023;DHT22;2530;47.990;7.866;2023-02-17T04:39:59;12.40;55.10
5023;DHT22;2530;47.990;7.866;2023-02-17T04:42:25;12.30;62.30
5023;DHT22;2530;47.990;7.866;2023-02-17T04:44:50;12.10;54.10
5023;DHT22;2530;47.990;7.866;2023-02-17T04:47:16;12.20;55.00
5023;DHT22;2530;47.990;7.866;2023-02-17T04:49:41;12.20;51.80
5023;DHT22;2530;47.990;7.866;2023-02-17T04:52:07;12.00;52.40
5023;DHT22;2530;47.990;7.866;2023-02-17T04:54:32;11.80;60.40
5023;DHT22;2530;47.990;7.866;2023-02-17T04:56:58;12.20;53.90
5023;DHT22;2530;47.990;7.866;2023-02-17T04:59:23;11.90;53.00
5023;DHT22;2530;47.990;7.866;2023-02-17T05:01:49;12.20;54.70
5023;DHT22;2530;47.990;7.866;2023-02-17T05:04:15;12.00;54.90
5023;DHT22;2530;47.990;7.866;2023-02-17T05:06:41;11.60;63.70
5023;DHT22;2530;47.990;7.866;2023-02-17T05:09:06;12.30;64.00
5023;DHT22;2530;47.990;7.866;2023-02-17T05:11:31;12.20;58.70
5023;DHT22;2530;47.990;7.866;2023-02-17T05:13:57;12.00;56.10
5023;DHT22;2530;47.990;7.866;2023-02-17T05:16:23;12.40;56.20
5023;DHT22;2530;47.990;7.866;2023-02-17T05:18:48;11.80;55.30
5023;DHT22;2530;47.990;7.866;2023-02-17T05:21:14;12.10;56.20
5023;DHT22;2530;47.990;7.866;2023-02-17T05:23:39;11.60;65.10
5023;DHT22;2530;47.990;7.866;2023-02-17T05:26:06;11.80;55.80
5023;DHT22;2530;47.990;7.866;2023-02-17T05:28:34;12.20;53.90
5023;DHT22;2530;47.990;7.866;2023-02-17T05:30:59;11.70;56.10
5023;DHT22;2530;47.990;7.866;2023-02-17T05:33:25;12.20;55.60
5023;DHT22;2530;47.990;7.866;2023-02-17T05:40:43;11.80;51.40
5023;DHT22;2530;47.990;7.866;2023-02-17T05:43:08;12.10;56.90
5023;DHT22;2530;47.990;7.866;2023-02-17T05:45:34;11.80;68.40
5023;DHT22;2530;47.990;7.866;2023-02-17T05:47:59;11.50;57.70
5023;DHT22;2530;47.990;7.866;2023-02-17T05:50:25;11.50;58.70
5023;DHT22;2530;47.990;7.866;2023-02-17T05:52:51;11.50;66.70
5023;DHT22;2530;47.990;7.866;2023-02-17T05:55:16;11.60;60.90
5023;DHT22;2530;47.990;7.866;2023-02-17T05:57:42;11.80;61.00
5023;DHT22;2530;47.990;7.866;2023-02-17T06:02:34;12.00;56.70
5023;DHT22;2530;47.990;7.866;2023-02-17T06:04:59;11.60;69.00
5023;DHT22;2530;47.990;7.866;2023-02-17T06:09:50;12.10;56.10
5023;DHT22;2530;47.990;7.866;2023-02-17T06:12:16;11.90;72.00
5023;DHT22;2530;47.990;7.866;2023-02-17T06:14:41;11.50;60.80
5023;DHT22;2530;47.990;7.866;2023-02-17T06:17:07;11.40;68.10
5023;DHT22;2530;47.990;7.866;2023-02-17T06:19:32;11.80;61.60
5023;DHT22;2530;47.990;7.866;2023-02-17T06:21:58;11.70;62.30
5023;DHT22;2530;47.990;7.866;2023-02-17T06:24:24;11.30;73.70
5023;DHT22;2530;47.990;7.866;2023-02-17T06:26:49;11.80;62.90
5023;DHT22;2530;47.990;7.866;2023-02-17T06:29:15;11.50;63.10
5023;DHT22;2530;47.990;7.866;2023-02-17T06:31:40;11.90;70.10
5023;DHT22;2530;47.990;7.866;2023-02-17T06:34:06;11.10;74.30
5023;DHT22;2530;47.990;7.866;2023-02-17T06:36:31;11.70;92.00
5023;DHT22;2530;47.990;7.866;2023-02-17T06:38:57;11.40;92.20
5023;DHT22;2530;47.990;7.866;2023-02-17T06:41:22;11.30;95.50
5023;DHT22;2530;47.990;7.866;2023-02-17T06:43:48;11.30;92.80
5023;DHT22;2530;47.990;7.866;2023-02-17T06:48:39;11.10;98.70
5023;DHT22;2530;47.990;7.866;2023-02-17T06:51:05;11.10;99.30
5023;DHT22;2530;47.990;7.866;2023-02-17T06:53:30;11.50;99.90
5023;DHT22;2530;47.990;7.866;2023-02-17T06:55:56;11.30;99.90
5023;DHT22;2530;47.990;7.866;2023-02-17T07:00:47;11.60;99.90
5023;DHT22;2530;47.990;7.866;2023-02-17T07:03:13;11.80;99.90
5023;DHT22;2530;47.990;7.866;2023-02-17T07:05:38;11.70;99.90
5023;DHT22;2530;47.990;7.866;2023-02-17T07:08:05;11.60;99.90
5023;DHT22;2530;47.990;7.866;2023-02-17T07:10:31;11.20;99.90
5023;DHT22;2530;47.990;7.866;2023-02-17T07:15:23;11.70;99.90
5023;DHT22;2530;47.990;7.866;2023-02-17T07:17:48;11.70;99.90
5023;DHT22;2530;47.990;7.866;2023-02-17T07:22:40;11.20;99.90
5023;DHT22;2530;47.990;7.866;2023-02-17T07:25:06;11.40;99.90
5023;DHT22;2530;47.990;7.866;2023-02-17T07:27:34;11.20;99.90
5023;DHT22;2530;47.990;7.866;2023-02-17T07:32:26;11.10;99.90
5023;DHT22;2530;47.990;7.866;2023-02-17T07:34:51;11.20;99.90
5023;DHT22;2530;47.990;7.866;2023-02-17T07:37:17;11.30;99.90
5023;DHT22;2530;47.990;7.866;2023-02-17T07:39:46;11.60;99.90
5023;DHT22;2530;47.990;7.866;2023-02-17T07:42:12;11.50;99.90
5023;DHT22;2530;47.990;7.866;2023-02-17T07:44:37;11.50;99.90
5023;DHT22;2530;47.990;7.866;2023-02-17T07:47:03;11.60;99.90
5023;DHT22;2530;47.990;7.866;2023-02-17T07:49:29;11.60;99.90
5023;DHT22;2530;47.990;7.866;2023-02-17T07:51:54;11.10;99.90
5023;DHT22;2530;47.990;7.866;2023-02-17T07:54:20;11.20;99.90
5023;DHT22;2530;47.990;7.866;2023-02-17T07:56:45;11.40;99.90
5023;DHT22;2530;47.990;7.866;2023-02-17T07:59:12;11.30;99.90
5023;DHT22;2530;47.990;7.866;2023-02-17T08:01:37;11.00;99.90
5023;DHT22;2530;47.990;7.866;2023-02-17T08:04:03;11.20;99.90
5023;DHT22;2530;47.990;7.866;2023-02-17T08:06:29;11.30;99.90
5023;DHT22;2530;47.990;7.866;2023-02-17T08:08:55;11.60;99.90
5023;DHT22;2530;47.990;7.866;2023-02-17T08:14:27;11.50;99.90
5023;DHT22;2530;47.990;7.866;2023-02-17T08:16:53;11.10;99.90
5023;DHT22;2530;47.990;7.866;2023-02-17T08:19:19;11.40;99.90
5023;DHT22;2530;47.990;7.866;2023-02-17T08:21:44;11.40;99.90
5023;DHT22;2530;47.990;7.866;2023-02-17T08:24:10;11.00;99.90
5023;DHT22;2530;47.990;7.866;2023-02-17T08:26:37;11.10;99.90
5023;DHT22;2530;47.990;7.866;2023-02-17T08:29:02;11.10;99.90
5023;DHT22;2530;47.990;7.866;2023-02-17T08:31:30;11.10;99.90
5023;DHT22;2530;47.990;7.866;2023-02-17T08:33:58;11.30;99.90
5023;DHT22;2530;47.990;7.866;2023-02-17T08:36:24;11.90;99.90
5023;DHT22;2530;47.990;7.866;2023-02-17T08:38:51;11.50;99.90
5023;DHT22;2530;47.990;7.866;2023-02-17T08:44:15;11.40;99.90
5023;DHT22;2530;47.990;7.866;2023-02-17T08:46:42;11.40;99.90
5023;DHT22;2530;47.990;7.866;2023-02-17T08:49:08;11.30;99.90
5023;DHT22;2530;47.990;7.866;2023-02-17T08:51:34;11.40;99.90
5023;DHT22;2530;47.990;7.866;2023-02-17T08:54:00;11.30;99.90
5023;DHT22;2530;47.990;7.866;2023-02-17T08:56:27;11.40;99.90
5023;DHT22;2530;47.990;7.866;2023-02-17T08:58:53;10.60;99.90
5023;DHT22;2530;47.990;7.866;2023-02-17T09:03:47;11.10;99.90
5023;DHT22;2530;47.990;7.866;2023-02-17T09:06:13;10.50;99.90
5023;DHT22;2530;47.990;7.866;2023-02-17T09:08:40;11.10;99.90
5023;DHT22;2530;47.990;7.866;2023-02-17T09:11:07;10.90;99.90
5023;DHT22;2530;47.990;7.866;2023-02-17T09:13:33;11.00;99.90
5023;DHT22;2530;47.990;7.866;2023-02-17T09:15:58;11.20;99.90
5023;DHT22;2530;47.990;7.866;2023-02-17T09:18:24;10.80;99.90
5023;DHT22;2530;47.990;7.866;2023-02-17T09:20:50;10.50;99.90
5023;DHT22;2530;47.990;7.866;2023-02-17T09:23:16;11.30;99.90
5023;DHT22;2530;47.990;7.866;2023-02-17T09:25:43;10.60;99.90
5023;DHT22;2530;47.990;7.866;2023-02-17T09:28:08;10.80;99.90
5023;DHT22;2530;47.990;7.866;2023-02-17T09:30:34;11.00;99.90
5023;DHT22;2530;47.990;7.866;2023-02-17T09:33:01;11.40;99.90
5023;DHT22;2530;47.990;7.866;2023-02-17T09:35:27;11.00;99.90
5023;DHT22;2530;47.990;7.866;2023-02-17T09:37:52;10.90;99.90
5023;DHT22;2530;47.990;7.866;2023-02-17T09:40:45;10.80;99.90
5023;DHT22;2530;47.990;7.866;2023-02-17T09:43:18;11.60;99.90
5023;DHT22;2530;47.990;7.866;2023-02-17T09:45:50;10.50;99.90
5023;DHT22;2530;47.990;7.866;2023-02-17T09:48:19;11.20;99.90
5023;DHT22;2530;47.990;7.866;2023-02-17T09:50:57;11.60;99.90
5023;DHT22;2530;47.990;7.866;2023-02-17T09:53:45;11.70;99.90
5023;DHT22;2530;47.990;7.866;2023-02-17T09:56:15;11.40;99.90
5023;DHT22;2530;47.990;7.866;2023-02-17T09:58:47;11.50;99.90
5023;DHT22;2530;47.990;7.866;2023-02-17T10:01:19;11.60;99.90
5023;DHT22;2530;47.990;7.866;2023-02-17T10:03:53;11.60;99.90
5023;DHT22;2530;47.990;7.866;2023-02-17T10:06:48;11.70;99.90
5023;DHT22;2530;47.990;7.866;2023-02-17T10:12:26;11.40;99.90
5023;DHT22;2530;47.990;7.866;2023-02-17T10:15:02;11.90;99.90
5023;DHT22;2530;47.990;7.866;2023-02-17T10:17:36;11.70;99.90
5023;DHT22;2530;47.990;7.866;2023-02-17T10:20:17;12.20;99.90
5023;DHT22;2530;47.990;7.866;2023-02-17T10:22:46;12.80;99.90
5023;DHT22;2530;47.990;7.866;2023-02-17T10:25:17;12.10;99.90
5023;DHT22;2530;47.990;7.866;2023-02-17T10:27:53;12.10;99.90
5023;DHT22;2530;47.990;7.866;2023-02-17T10:33:11;11.80;99.90
5023;DHT22;2530;47.990;7.866;2023-02-17T10:39:15;11.70;99.90
5023;DHT22;2530;47.990;7.866;2023-02-17T10:41:47;11.90;99.90
5023;DHT22;2530;47.990;7.866;2023-02-17T10:44:17;11.60;99.90
5023;DHT22;2530;47.990;7.866;2023-02-17T10:46:45;11.90;99.90
5023;DHT22;2530;47.990;7.866;2023-02-17T10:49:34;12.20;99.90
5023;DHT22;2530;47.990;7.866;2023-02-17T10:52:19;12.70;99.90
5023;DHT22;2530;47.990;7.866;2023-02-17T10:55:15;11.90;99.90
5023;DHT22;2530;47.990;7.866;2023-02-17T10:57:43;12.30;99.90
5023;DHT22;2530;47.990;7.866;2023-02-17T11:00:17;11.90;99.90
5023;DHT22;2530;47.990;7.866;2023-02-17T11:02:44;12.20;99.90
5023;DHT22;2530;47.990;7.866;2023-02-17T11:05:27;12.60;99.90
5023;DHT22;2530;47.990;7.866;2023-02-17T11:08:07;11.80;99.90
5023;DHT22;2530;47.990;7.866;2023-02-17T11:10:44;12.40;99.90
5023;DHT22;2530;47.990;7.866;2023-02-17T11:16:00;11.80;99.90
5023;DHT22;2530;47.990;7.866;2023-02-17T11:18:35;12.10;99.90
5023;DHT22;2530;47.990;7.866;2023-02-17T11:21:09;13.40;99.90
5023;DHT22;2530;47.990;7.866;2023-02-17T11:23:47;12.40;99.90
5023;DHT22;2530;47.990;7.866;2023-02-17T11:26:23;12.40;99.90
5023;DHT22;2530;47.990;7.866;2023-02-17T11:28:49;12.20;99.90
5023;DHT22;2530;47.990;7.866;2023-02-17T11:31:29;12.10;99.90
5023;DHT22;2530;47.990;7.866;2023-02-17T11:33:55;12.50;99.90
5023;DHT22;2530;47.990;7.866;2023-02-17T11:36:27;12.30;99.90
5023;DHT22;2530;47.990;7.866;2023-02-17T11:38:53;12.30;99.90
5023;DHT22;2530;47.990;7.866;2023-02-17T11:43:56;11.90;99.90
5023;DHT22;2530;47.990;7.866;2023-02-17T11:49:44;13.00;99.90
5023;DHT22;2530;47.990;7.866;2023-02-17T11:55:07;12.40;99.90
5023;DHT22;2530;47.990;7.866;2023-02-17T11:57:43;12.00;99.90
5023;DHT22;2530;47.990;7.866;2023-02-17T12:00:19;12.80;99.90
5023;DHT22;2530;47.990;7.866;2023-02-17T12:16:26;13.00;99.90
5023;DHT22;2530;47.990;7.866;2023-02-17T12:19:12;12.60;99.90
5023;DHT22;2530;47.990;7.866;2023-02-17T12:24:35;12.50;99.90
5023;DHT22;2530;47.990;7.866;2023-02-17T12:33:00;12.60;99.90
5023;DHT22;2530;47.990;7.866;2023-02-17T12:35:39;12.80;99.90
5023;DHT22;2530;47.990;7.866;2023-02-17T12:38:16;12.40;99.90
5023;DHT22;2530;47.990;7.866;2023-02-17T12:40:57;12.50;99.90
5023;DHT22;2530;47.990;7.866;2023-02-17T12:43:46;12.80;99.90
5023;DHT22;2530;47.990;7.866;2023-02-17T12:46:22;12.40;99.90
5023;DHT22;2530;47.990;7.866;2023-02-17T12:48:53;12.30;99.90
5023;DHT22;2530;47.990;7.866;2023-02-17T12:59:32;12.60;99.90
5023;DHT22;2530;47.990;7.866;2023-02-17T13:02:10;12.60;99.90
5023;DHT22;2530;47.990;7.866;2023-02-17T13:04:40;12.90;99.90
5023;DHT22;2530;47.990;7.866;2023-02-17T13:09:57;12.80;99.90
5023;DHT22;2530;47.990;7.866;2023-02-17T13:20:23;13.10;99.90
5023;DHT22;2530;47.990;7.866;2023-02-17T13:23:06;13.50;99.90
5023;DHT22;2530;47.990;7.866;2023-02-17T13:25:34;13.40;99.90
5023;DHT22;2530;47.990;7.866;2023-02-17T13:28:01;13.20;99.90
5023;DHT22;2530;47.990;7.866;2023-02-17T13:30:43;13.10;99.90
5023;DHT22;2530;47.990;7.866;2023-02-17T13:35:47;13.40;99.90
5023;DHT22;2530;47.990;7.866;2023-02-17T13:38:28;13.00;99.90
5023;DHT22;2530;47.990;7.866;2023-02-17T13:40:59;12.90;99.90
5023;DHT22;2530;47.990;7.866;2023-02-17T13:43:26;13.00;99.90
5023;DHT22;2530;47.990;7.866;2023-02-17T13:45:58;14.20;99.90
5023;DHT22;2530;47.990;7.866;2023-02-17T13:48:34;13.30;99.90
5023;DHT22;2530;47.990;7.866;2023-02-17T13:51:05;13.50;99.90
5023;DHT22;2530;47.990;7.866;2023-02-17T13:53:40;13.40;99.90
5023;DHT22;2530;47.990;7.866;2023-02-17T13:56:21;13.20;99.90
5023;DHT22;2530;47.990;7.866;2023-02-17T13:58:48;13.60;99.90
5023;DHT22;2530;47.990;7.866;2023-02-17T14:01:18;13.10;99.90
5023;DHT22;2530;47.990;7.866;2023-02-17T14:03:51;13.50;99.90
5023;DHT22;2530;47.990;7.866;2023-02-17T14:06:32;13.40;99.90
5023;DHT22;2530;47.990;7.866;2023-02-17T14:09:20;13.50;99.90
5023;DHT22;2530;47.990;7.866;2023-02-17T14:11:48;14.20;99.90
5023;DHT22;2530;47.990;7.866;2023-02-17T14:14:14;13.20;99.90
5023;DHT22;2530;47.990;7.866;2023-02-17T14:16:41;13.70;99.90
5023;DHT22;2530;47.990;7.866;2023-02-17T14:19:17;13.30;99.90
5023;DHT22;2530;47.990;7.866;2023-02-17T14:22:01;13.60;99.90
5023;DHT22;2530;47.990;7.866;2023-02-17T14:24:33;13.60;99.90
5023;DHT22;2530;47.990;7.866;2023-02-17T14:27:07;13.60;99.90
5023;DHT22;2530;47.990;7.866;2023-02-17T14:29:43;13.40;99.90
5023;DHT22;2530;47.990;7.866;2023-02-17T14:32:32;13.00;99.90
5023;DHT22;2530;47.990;7.866;2023-02-17T14:37:39;13.60;99.90
5023;DHT22;2530;47.990;7.866;2023-02-17T14:40:14;13.60;99.90
5023;DHT22;2530;47.990;7.866;2023-02-17T14:42:39;13.60;99.90
5023;DHT22;2530;47.990;7.866;2023-02-17T14:45:05;13.80;99.90
5023;DHT22;2530;47.990;7.866;2023-02-17T14:47:31;13.70;99.90
5023;DHT22;2530;47.990;7.866;2023-02-17T14:49:57;15.00;99.90
5023;DHT22;2530;47.990;7.866;2023-02-17T14:52:24;13.00;99.90
5023;DHT22;2530;47.990;7.866;2023-02-17T14:54:50;13.50;99.90
5023;DHT22;2530;47.990;7.866;2023-02-17T14:57:16;13.10;99.90
5023;DHT22;2530;47.990;7.866;2023-02-17T14:59:43;13.60;99.90
5023;DHT22;2530;47.990;7.866;2023-02-17T15:02:20;13.10;99.90
5023;DHT22;2530;47.990;7.866;2023-02-17T15:04:45;14.70;99.90
5023;DHT22;2530;47.990;7.866;2023-02-17T15:07:14;13.50;99.90
5023;DHT22;2530;47.990;7.866;2023-02-17T15:09:40;13.60;99.90
5023;DHT22;2530;47.990;7.866;2023-02-17T15:12:13;13.20;99.90
5023;DHT22;2530;47.990;7.866;2023-02-17T15:14:39;13.50;99.90
5023;DHT22;2530;47.990;7.866;2023-02-17T15:17:05;13.50;99.90
5023;DHT22;2530;47.990;7.866;2023-02-17T15:19:30;14.20;99.90
5023;DHT22;2530;47.990;7.866;2023-02-17T15:21:56;15.40;99.90
5023;DHT22;2530;47.990;7.866;2023-02-17T15:24:26;16.20;99.90
5023;DHT22;2530;47.990;7.866;2023-02-17T15:26:53;16.70;95.00
5023;DHT22;2530;47.990;7.866;2023-02-17T15:29:21;16.70;93.20
5023;DHT22;2530;47.990;7.866;2023-02-17T15:31:47;16.70;86.90
5023;DHT22;2530;47.990;7.866;2023-02-17T15:34:15;16.50;95.70
5023;DHT22;2530;47.990;7.866;2023-02-17T15:36:41;15.90;90.80
5023;DHT22;2530;47.990;7.866;2023-02-17T15:39:11;17.00;90.90
5023;DHT22;2530;47.990;7.866;2023-02-17T15:41:37;17.50;90.40
5023;DHT22;2530;47.990;7.866;2023-02-17T15:44:04;17.20;89.90
5023;DHT22;2530;47.990;7.866;2023-02-17T15:46:31;16.90;81.40
5023;DHT22;2530;47.990;7.866;2023-02-17T15:48:57;16.20;87.60
5023;DHT22;2530;47.990;7.866;2023-02-17T15:51:23;18.50;91.90
5023;DHT22;2530;47.990;7.866;2023-02-17T15:53:49;14.80;95.90
5023;DHT22;2530;47.990;7.866;2023-02-17T15:56:29;14.80;99.90
5023;DHT22;2530;47.990;7.866;2023-02-17T15:58:57;14.80;99.90
5023;DHT22;2530;47.990;7.866;2023-02-17T16:06:18;13.80;99.90
5023;DHT22;2530;47.990;7.866;2023-02-17T16:08:44;14.00;99.90
5023;DHT22;2530;47.990;7.866;2023-02-17T16:11:11;13.40;99.90
5023;DHT22;2530;47.990;7.866;2023-02-17T16:13:38;13.90;99.90
5023;DHT22;2530;47.990;7.866;2023-02-17T16:16:09;13.50;99.90
5023;DHT22;2530;47.990;7.866;2023-02-17T16:18:39;13.20;99.90
5023;DHT22;2530;47.990;7.866;2023-02-17T16:21:04;13.40;99.90
5023;DHT22;2530;47.990;7.866;2023-02-17T16:23:30;13.40;99.90
5023;DHT22;2530;47.990;7.866;2023-02-17T16:25:55;12.80;99.90
5023;DHT22;2530;47.990;7.866;2023-02-17T16:28:21;12.60;99.90
5023;DHT22;2530;47.990;7.866;2023-02-17T16:30:47;12.90;99.90
5023;DHT22;2530;47.990;7.866;2023-02-17T16:33:15;12.70;99.90
5023;DHT22;2530;47.990;7.866;2023-02-17T16:35:41;12.50;99.90
5023;DHT22;2530;47.990;7.866;2023-02-17T16:38:17;13.10;99.90
5023;DHT22;2530;47.990;7.866;2023-02-17T16:40:47;13.10;99.90
5023;DHT22;2530;47.990;7.866;2023-02-17T16:43:23;13.00;99.90
5023;DHT22;2530;47.990;7.866;2023-02-17T16:45:54;12.50;99.90
5023;DHT22;2530;47.990;7.866;2023-02-17T16:48:23;12.40;99.90
5023;DHT22;2530;47.990;7.866;2023-02-17T16:50:49;12.90;99.90
5023;DHT22;2530;47.990;7.866;2023-02-17T16:53:15;12.80;99.90
5023;DHT22;2530;47.990;7.866;2023-02-17T16:55:41;12.30;99.90
5023;DHT22;2530;47.990;7.866;2023-02-17T16:58:16;12.20;99.90
5023;DHT22;2530;47.990;7.866;2023-02-17T17:00:43;12.30;99.90
5023;DHT22;2530;47.990;7.866;2023-02-17T17:03:09;12.60;99.90
5023;DHT22;2530;47.990;7.866;2023-02-17T17:05:35;12.30;99.90
5023;DHT22;2530;47.990;7.866;2023-02-17T17:08:01;12.70;99.90
5023;DHT22;2530;47.990;7.866;2023-02-17T17:10:29;12.80;99.90
5023;DHT22;2530;47.990;7.866;2023-02-17T17:12:55;12.80;99.90
5023;DHT22;2530;47.990;7.866;2023-02-17T17:15:21;12.70;99.90
5023;DHT22;2530;47.990;7.866;2023-02-17T17:17:56;12.40;99.90
5023;DHT22;2530;47.990;7.866;2023-02-17T17:20:25;12.70;99.90
5023;DHT22;2530;47.990;7.866;2023-02-17T17:22:59;12.60;99.90
5023;DHT22;2530;47.990;7.866;2023-02-17T17:25:25;13.00;99.90
5023;DHT22;2530;47.990;7.866;2023-02-17T17:27:51;12.50;99.90
5023;DHT22;2530;47.990;7.866;2023-02-17T17:30:19;12.50;99.90
5023;DHT22;2530;47.990;7.866;2023-02-17T17:32:46;12.80;99.90
5023;DHT22;2530;47.990;7.866;2023-02-17T17:35:12;12.40;99.90
5023;DHT22;2530;47.990;7.866;2023-02-17T17:37:37;12.70;99.90
5023;DHT22;2530;47.990;7.866;2023-02-17T17:40:04;12.40;99.90
5023;DHT22;2530;47.990;7.866;2023-02-17T17:42:29;12.30;99.90
5023;DHT22;2530;47.990;7.866;2023-02-17T17:44:55;12.40;99.90
5023;DHT22;2530;47.990;7.866;2023-02-17T17:47:21;12.80;99.90
5023;DHT22;2530;47.990;7.866;2023-02-17T17:49:46;12.50;99.90
5023;DHT22;2530;47.990;7.866;2023-02-17T17:52:12;12.60;99.90
5023;DHT22;2530;47.990;7.866;2023-02-17T17:54:41;12.30;99.90
5023;DHT22;2530;47.990;7.866;2023-02-17T17:57:07;12.40;99.90
5023;DHT22;2530;47.990;7.866;2023-02-17T17:59:32;12.40;99.90
5023;DHT22;2530;47.990;7.866;2023-02-17T18:01:58;12.60;99.90
5023;DHT22;2530;47.990;7.866;2023-02-17T18:04:23;12.50;99.90
5023;DHT22;2530;47.990;7.866;2023-02-17T18:06:50;12.50;99.90
5023;DHT22;2530;47.990;7.866;2023-02-17T18:09:22;12.70;99.90
5023;DHT22;2530;47.990;7.866;2023-02-17T18:11:50;12.10;99.90
5023;DHT22;2530;47.990;7.866;2023-02-17T18:14:16;11.90;99.90
5023;DHT22;2530;47.990;7.866;2023-02-17T18:16:43;12.20;99.90
5023;DHT22;2530;47.990;7.866;2023-02-17T18:19:10;12.10;99.90
5023;DHT22;2530;47.990;7.866;2023-02-17T18:21:36;12.20;99.90
5023;DHT22;2530;47.990;7.866;2023-02-17T18:24:04;12.00;99.90
5023;DHT22;2530;47.990;7.866;2023-02-17T18:26:29;12.30;99.90
5023;DHT22;2530;47.990;7.866;2023-02-17T18:28:55;11.90;99.90
5023;DHT22;2530;47.990;7.866;2023-02-17T18:31:21;12.30;99.90
5023;DHT22;2530;47.990;7.866;2023-02-17T18:33:47;12.20;99.90
5023;DHT22;2530;47.990;7.866;2023-02-17T18:36:18;12.10;99.90
5023;DHT22;2530;47.990;7.866;2023-02-17T18:38:44;13.30;99.90
5023;DHT22;2530;47.990;7.866;2023-02-17T18:41:23;12.30;99.90
5023;DHT22;2530;47.990;7.866;2023-02-17T18:43:48;12.00;99.90
5023;DHT22;2530;47.990;7.866;2023-02-17T18:46:14;11.70;99.90